Terminal Aerodrome Forecast
Issued by NWS

Home | Current Version | Previous Version | Text Only | Print | Product List | Glossary On
Versions: 1 2 3 4 5 6 7 8 9 10 11 12 13 14 15 16
562
FTUS43 KLSX 181725
TAFCPS
TAF
KCPS 181725Z 1818/1918 25008KT P6SM OVC025
     FM182000 24008KT P6SM SCT035
     FM190000 23007KT P6SM SCT250
     FM191400 24005KT P6SM BKN090=

USA.gov is the U.S. government's official web portal to all federal, state and local government web resources and services.